Time;durP1;ratioP1;P1;durP2;ratioP2;P2;SDS_P1;SDS_P2;PMS_P1;PMS_P2;Temp;Humidity;BMP_temperature;BMP_pressure;BME280_temperature;BME280_humidity;BME280_pressure;Samples;Min_cycle;Max_cycle;Signal;HPM_P1;HPM_P2
2023/01/27 00:00:19;;;;;;;15.70;9.00;;;6.00;99.90;;;;;;2105972;28;20174;-71
2023/01/27 00:01:19;;;;;;;16.90;9.13;;;6.00;99.90;;;;;;2108407;28;20012;-71
2023/01/27 00:02:20;;;;;;;19.02;9.70;;;6.00;99.90;;;;;;2109133;28;20088;-71
2023/01/27 00:03:21;;;;;;;19.63;9.38;;;6.00;99.90;;;;;;2108651;28;20077;-71
2023/01/27 00:04:21;;;;;;;16.10;9.88;;;6.00;99.90;;;;;;2109369;28;20020;-71
2023/01/27 00:05:22;;;;;;;18.10;10.40;;;6.00;99.90;;;;;;2109139;27;21285;-71
2023/01/27 00:06:23;;;;;;;22.38;10.40;;;6.00;99.90;;;;;;2111256;28;20973;-71
2023/01/27 00:07:24;;;;;;;20.85;10.73;;;5.90;99.90;;;;;;2103199;28;20016;-71
2023/01/27 00:08:24;;;;;;;19.77;10.65;;;6.00;99.90;;;;;;2106577;28;20043;-71
2023/01/27 00:09:25;;;;;;;15.35;9.30;;;6.00;99.90;;;;;;2109023;28;20012;-71
2023/01/27 00:10:26;;;;;;;18.70;10.32;;;6.00;99.90;;;;;;2108593;28;20031;-71
2023/01/27 00:14:05;;;;;;;22.13;10.90;;;5.90;99.90;;;;;;2108855;28;20477;-71
2023/01/27 00:15:07;;;;;;;15.18;10.05;;;5.90;99.90;;;;;;2108437;28;20028;-71
2023/01/27 00:16:08;;;;;;;20.52;10.43;;;6.00;99.90;;;;;;2109164;28;20585;-71
2023/01/27 00:17:09;;;;;;;19.48;9.95;;;5.90;99.90;;;;;;2105677;28;20039;-72
2023/01/27 00:18:09;;;;;;;15.68;9.85;;;5.90;99.90;;;;;;2107023;28;20542;-71
2023/01/27 00:19:10;;;;;;;17.77;10.15;;;6.00;99.90;;;;;;2106625;28;20135;-71
2023/01/27 00:20:11;;;;;;;12.45;9.57;;;5.90;99.90;;;;;;2107739;28;20909;-71
2023/01/27 00:25:09;;;;;;;13.43;9.15;;;5.80;99.90;;;;;;2107151;28;20103;-71
2023/01/27 00:26:16;;;;;;;20.95;9.82;;;5.80;99.90;;;;;;2109130;28;20523;-71
2023/01/27 00:27:16;;;;;;;15.95;9.95;;;5.80;99.90;;;;;;2106879;28;20024;-71
2023/01/27 00:28:21;;;;;;;16.67;10.05;;;5.80;99.90;;;;;;2107819;28;20035;-71
2023/01/27 00:29:22;;;;;;;16.23;9.18;;;5.80;99.90;;;;;;2108157;28;20503;-71
2023/01/27 00:30:23;;;;;;;17.00;9.25;;;5.80;99.90;;;;;;2107076;28;20438;-71
2023/01/27 00:34:07;;;;;;;16.63;9.10;;;5.80;99.90;;;;;;2105875;28;20027;-71
2023/01/27 00:35:08;;;;;;;17.35;9.15;;;5.80;99.90;;;;;;2109033;28;20020;-71
2023/01/27 00:36:08;;;;;;;15.73;9.30;;;5.80;99.90;;;;;;2108172;28;20109;-71
2023/01/27 00:37:09;;;;;;;15.75;8.90;;;5.80;99.90;;;;;;2105871;28;20032;-71
2023/01/27 00:38:10;;;;;;;17.40;9.20;;;5.80;99.90;;;;;;2110972;28;20016;-71
2023/01/27 00:39:11;;;;;;;14.35;9.05;;;5.80;99.90;;;;;;2104737;28;20024;-71
2023/01/27 00:40:13;;;;;;;12.88;8.77;;;5.80;99.90;;;;;;2106338;28;20164;-71
2023/01/27 00:41:14;;;;;;;16.63;8.70;;;5.80;99.90;;;;;;2105754;28;20024;-71
2023/01/27 00:42:15;;;;;;;14.95;8.80;;;5.80;99.90;;;;;;2108310;28;20106;-71
2023/01/27 00:43:15;;;;;;;14.55;8.90;;;5.80;99.90;;;;;;2106969;28;20019;-71
2023/01/27 00:44:16;;;;;;;15.52;9.07;;;5.80;99.90;;;;;;2107778;28;20433;-71
2023/01/27 00:46:36;;;;;;;14.00;8.38;;;5.80;99.90;;;;;;2108790;28;20107;-71
2023/01/27 00:47:36;;;;;;;13.68;8.63;;;5.80;99.90;;;;;;2108093;28;20028;-72
2023/01/27 00:48:37;;;;;;;15.88;8.80;;;5.80;99.90;;;;;;2106048;28;20103;-71
2023/01/27 00:49:37;;;;;;;13.70;8.95;;;5.80;99.90;;;;;;2107626;28;20085;-71
2023/01/27 00:50:38;;;;;;;15.60;8.88;;;5.80;99.90;;;;;;2105829;28;20027;-71
2023/01/27 00:51:38;;;;;;;15.25;8.85;;;5.80;99.90;;;;;;2106419;28;20107;-71
2023/01/27 00:52:39;;;;;;;15.00;8.50;;;5.80;99.90;;;;;;2106918;28;20048;-71
2023/01/27 00:53:40;;;;;;;16.65;8.82;;;5.90;99.90;;;;;;2106282;28;20653;-71
2023/01/27 00:54:41;;;;;;;15.82;8.98;;;5.80;99.90;;;;;;2105161;28;20043;-71
2023/01/27 00:55:41;;;;;;;17.70;9.73;;;5.90;99.90;;;;;;2105749;28;20126;-71
2023/01/27 00:56:42;;;;;;;15.45;8.88;;;5.90;99.90;;;;;;2106188;28;20035;-71
2023/01/27 00:57:42;;;;;;;16.58;9.18;;;5.90;99.90;;;;;;2106893;28;20079;-71
2023/01/27 00:58:43;;;;;;;20.33;8.50;;;5.90;99.90;;;;;;2105488;28;20111;-71
2023/01/27 00:59:43;;;;;;;14.57;8.82;;;5.90;99.90;;;;;;2107179;28;20032;-71
2023/01/27 01:00:44;;;;;;;17.10;9.30;;;5.90;99.90;;;;;;2109714;28;20024;-71
2023/01/27 01:01:44;;;;;;;12.35;8.30;;;5.90;99.90;;;;;;2109069;28;20452;-71
2023/01/27 01:02:45;;;;;;;18.48;8.68;;;5.90;99.90;;;;;;2107217;28;20030;-71
2023/01/27 01:03:45;;;;;;;11.88;8.55;;;5.90;99.90;;;;;;2107965;28;20031;-71
2023/01/27 01:04:46;;;;;;;15.00;8.65;;;5.90;99.90;;;;;;2105454;28;20039;-71
2023/01/27 01:05:47;;;;;;;15.05;9.05;;;5.90;99.90;;;;;;2105993;28;20105;-71
2023/01/27 01:06:48;;;;;;;20.50;9.38;;;5.90;99.90;;;;;;2106799;28;20463;-71
2023/01/27 01:07:48;;;;;;;14.38;9.02;;;5.90;99.90;;;;;;2107763;28;20476;-71
2023/01/27 01:08:50;;;;;;;13.90;9.85;;;5.90;99.90;;;;;;2106950;28;20062;-71
2023/01/27 01:09:50;;;;;;;15.15;9.35;;;5.90;99.90;;;;;;2107252;28;20028;-71
2023/01/27 01:10:51;;;;;;;16.83;11.25;;;5.90;99.90;;;;;;2102758;28;20089;-71
2023/01/27 01:11:51;;;;;;;21.85;11.23;;;5.90;99.90;;;;;;2106866;28;20032;-71
2023/01/27 01:12:52;;;;;;;18.30;10.57;;;5.80;99.90;;;;;;2107476;28;20073;-71
2023/01/27 01:13:52;;;;;;;15.93;11.13;;;5.80;99.90;;;;;;2108506;28;20043;-71
2023/01/27 01:14:53;;;;;;;16.65;10.65;;;5.80;99.90;;;;;;2107962;28;20479;-71
2023/01/27 01:15:54;;;;;;;19.40;12.40;;;5.80;99.90;;;;;;2108324;28;20642;-71
2023/01/27 01:16:55;;;;;;;19.58;11.93;;;5.80;99.90;;;;;;2106551;28;20386;-71
2023/01/27 01:17:55;;;;;;;20.05;12.85;;;5.70;99.90;;;;;;2106173;28;20020;-71
2023/01/27 01:18:57;;;;;;;18.70;11.48;;;5.80;99.90;;;;;;2106113;28;20023;-71
2023/01/27 01:19:57;;;;;;;19.33;10.95;;;5.80;99.90;;;;;;2105174;28;20027;-71
2023/01/27 01:20:58;;;;;;;17.90;11.23;;;5.70;99.90;;;;;;2105994;28;20027;-71
2023/01/27 01:21:58;;;;;;;20.92;11.25;;;5.70;99.90;;;;;;2103841;28;20024;-71
2023/01/27 01:22:59;;;;;;;18.40;11.13;;;5.70;99.90;;;;;;2107163;28;20540;-71
2023/01/27 01:23:59;;;;;;;17.92;10.77;;;5.70;99.90;;;;;;2107573;28;20020;-71
2023/01/27 01:25:00;;;;;;;19.35;11.05;;;5.70;99.90;;;;;;2109280;28;20016;-71
2023/01/27 01:26:00;;;;;;;15.82;10.82;;;5.60;99.90;;;;;;2107276;28;20459;-71
2023/01/27 01:27:01;;;;;;;22.05;11.85;;;5.70;99.90;;;;;;2106615;28;20158;-71
2023/01/27 01:28:03;;;;;;;17.30;11.80;;;5.60;99.90;;;;;;2105145;28;20111;-71
2023/01/27 01:29:04;;;;;;;18.63;12.43;;;5.60;99.90;;;;;;2104268;27;20028;-71
2023/01/27 01:30:05;;;;;;;22.50;12.75;;;5.60;99.90;;;;;;2106295;28;20097;-70
2023/01/27 01:31:07;;;;;;;19.17;12.77;;;5.50;99.90;;;;;;2108304;28;20556;-70
2023/01/27 01:32:08;;;;;;;21.25;13.60;;;5.50;99.90;;;;;;2106284;28;20062;-70
2023/01/27 01:33:09;;;;;;;24.60;16.27;;;5.50;99.90;;;;;;2106195;28;20032;-70
2023/01/27 01:34:10;;;;;;;23.98;17.17;;;5.50;99.90;;;;;;2108384;28;20031;-70
2023/01/27 01:35:10;;;;;;;24.58;17.90;;;5.50;99.90;;;;;;2108851;28;20055;-70
2023/01/27 01:36:14;;;;;;;25.25;18.88;;;5.50;99.90;;;;;;2107537;28;20039;-70
2023/01/27 01:37:14;;;;;;;26.88;19.77;;;5.40;99.90;;;;;;2107001;28;20046;-70
2023/01/27 01:38:15;;;;;;;27.30;19.77;;;5.40;99.90;;;;;;2108603;28;20131;-70
2023/01/27 01:39:15;;;;;;;29.02;18.83;;;5.40;99.90;;;;;;2106520;28;20526;-70
2023/01/27 01:40:16;;;;;;;27.60;18.80;;;5.40;99.90;;;;;;2108412;28;20102;-70
2023/01/27 01:41:19;;;;;;;24.45;17.55;;;5.40;99.90;;;;;;2108207;28;20015;-70
2023/01/27 01:42:19;;;;;;;23.83;17.42;;;5.40;99.90;;;;;;2106833;28;20057;-70
2023/01/27 01:43:21;;;;;;;18.65;14.30;;;5.40;99.90;;;;;;2106308;28;20067;-70
2023/01/27 01:44:24;;;;;;;20.15;14.63;;;5.30;99.90;;;;;;2102591;28;20071;-70
2023/01/27 01:45:31;;;;;;;20.10;14.40;;;5.30;99.90;;;;;;2109417;28;20076;-70
2023/01/27 01:46:31;;;;;;;20.58;13.48;;;5.30;99.90;;;;;;2107387;28;20028;-70
2023/01/27 01:47:32;;;;;;;15.38;12.38;;;5.30;99.90;;;;;;2110318;28;20024;-70
2023/01/27 01:48:45;;;;;;;15.52;11.75;;;5.30;99.90;;;;;;2109291;28;20027;-70
2023/01/27 01:49:46;;;;;;;15.63;12.10;;;5.20;99.90;;;;;;2107000;28;20866;-70
2023/01/27 01:50:53;;;;;;;17.15;12.70;;;5.20;99.90;;;;;;2106610;28;20403;-70
2023/01/27 01:51:58;;;;;;;16.83;11.60;;;5.20;99.90;;;;;;2108421;28;20039;-70
2023/01/27 01:53:02;;;;;;;15.63;12.65;;;5.20;99.90;;;;;;2109312;28;20371;-70
2023/01/27 01:54:15;;;;;;;17.55;13.13;;;5.20;99.90;;;;;;2109360;28;20032;-70
2023/01/27 01:55:17;;;;;;;16.45;12.30;;;5.20;99.90;;;;;;2107952;28;20035;-70
2023/01/27 01:56:23;;;;;;;19.25;12.68;;;5.20;99.90;;;;;;2109146;28;20672;-70
2023/01/27 01:57:36;;;;;;;17.75;12.90;;;5.20;99.90;;;;;;2109053;28;20107;-70
2023/01/27 01:58:37;;;;;;;17.45;13.75;;;5.20;99.90;;;;;;2109028;28;20873;-70
2023/01/27 02:00:00;;;;;;;17.58;13.30;;;5.20;99.90;;;;;;2109490;28;20115;-70
2023/01/27 02:01:03;;;;;;;18.83;13.40;;;5.20;99.90;;;;;;2108540;28;20026;-70
2023/01/27 02:02:09;;;;;;;18.23;13.85;;;5.20;99.90;;;;;;2111610;28;20642;-70
2023/01/27 02:03:10;;;;;;;19.35;13.93;;;5.20;99.90;;;;;;2112080;28;20475;-70
2023/01/27 02:04:16;;;;;;;19.02;14.25;;;5.20;99.90;;;;;;2106976;28;20476;-70
2023/01/27 02:05:26;;;;;;;18.60;13.25;;;5.20;99.90;;;;;;2107772;28;20574;-71
2023/01/27 02:06:27;;;;;;;17.77;14.43;;;5.10;99.90;;;;;;2109195;28;20622;-70
2023/01/27 02:07:49;;;;;;;17.90;14.13;;;5.10;99.90;;;;;;2108564;28;20035;-71
2023/01/27 02:08:50;;;;;;;18.67;13.82;;;5.10;99.90;;;;;;2107955;28;20484;-70
2023/01/27 02:09:53;;;;;;;18.98;13.80;;;5.10;99.90;;;;;;2111808;28;20141;-70
2023/01/27 02:10:54;;;;;;;18.55;14.00;;;5.10;99.90;;;;;;2102485;28;20020;-70
2023/01/27 02:11:57;;;;;;;16.33;13.75;;;5.10;99.90;;;;;;2107714;28;20038;-70
2023/01/27 02:12:57;;;;;;;20.70;15.73;;;5.20;99.90;;;;;;2106357;28;20488;-70
2023/01/27 02:14:00;;;;;;;17.80;14.25;;;5.20;99.90;;;;;;2106721;28;20116;-70
2023/01/27 02:15:02;;;;;;;22.38;16.92;;;5.20;99.90;;;;;;2108702;28;20110;-70
2023/01/27 02:16:04;;;;;;;23.00;16.50;;;5.20;99.90;;;;;;2106962;28;20040;-70
2023/01/27 02:17:04;;;;;;;22.90;16.45;;;5.20;99.90;;;;;;2107742;28;20041;-70
2023/01/27 02:18:06;;;;;;;24.52;15.68;;;5.20;99.90;;;;;;2109848;28;20034;-70
2023/01/27 02:19:17;;;;;;;24.27;16.83;;;5.10;99.90;;;;;;2106439;28;20076;-70
2023/01/27 02:20:28;;;;;;;21.70;16.17;;;5.20;99.90;;;;;;2106860;28;20047;-70
2023/01/27 02:21:29;;;;;;;25.02;16.80;;;5.10;99.90;;;;;;2108942;28;20849;-70
2023/01/27 02:22:48;;;;;;;23.88;17.42;;;5.10;99.90;;;;;;2107474;28;20020;-70
2023/01/27 02:24:11;;;;;;;20.37;15.37;;;5.10;99.90;;;;;;2107248;28;20709;-70
2023/01/27 02:25:23;;;;;;;20.20;15.80;;;5.10;99.90;;;;;;2107987;28;21719;-70
2023/01/27 02:26:43;;;;;;;23.20;17.33;;;5.10;99.90;;;;;;2108765;28;20028;-70
2023/01/27 02:27:43;;;;;;;25.65;17.77;;;5.10;99.90;;;;;;2109264;28;20043;-70
2023/01/27 02:28:44;;;;;;;21.90;16.48;;;5.10;99.90;;;;;;2108654;28;20019;-70
2023/01/27 02:29:45;;;;;;;22.42;17.65;;;5.10;99.90;;;;;;2106092;28;20028;-71
2023/01/27 02:30:45;;;;;;;22.63;15.15;;;5.10;99.90;;;;;;2109216;28;20111;-70
2023/01/27 02:31:46;;;;;;;23.60;17.33;;;5.10;99.90;;;;;;2110988;27;20034;-70
2023/01/27 02:32:46;;;;;;;24.42;17.02;;;5.10;99.90;;;;;;2113398;27;20027;-70
2023/01/27 02:33:47;;;;;;;22.20;17.38;;;5.10;99.90;;;;;;2109686;28;20179;-70
2023/01/27 02:34:47;;;;;;;23.75;17.95;;;5.10;99.90;;;;;;2107656;28;20024;-70
2023/01/27 02:36:02;;;;;;;23.55;17.70;;;5.20;99.90;;;;;;2107627;28;20028;-70
2023/01/27 02:37:06;;;;;;;24.15;17.83;;;5.10;99.90;;;;;;2108336;28;20111;-70
2023/01/27 02:38:10;;;;;;;22.77;16.58;;;5.10;99.90;;;;;;2109288;28;20023;-70
2023/01/27 02:39:13;;;;;;;26.33;17.70;;;5.10;99.90;;;;;;2107655;28;20055;-70
2023/01/27 02:40:15;;;;;;;24.05;17.13;;;5.20;99.90;;;;;;2107974;28;20032;-70
2023/01/27 02:41:26;;;;;;;25.73;17.60;;;5.10;99.90;;;;;;2109400;28;20061;-70
2023/01/27 02:42:27;;;;;;;25.58;17.67;;;5.20;99.90;;;;;;2110161;28;20077;-70
2023/01/27 02:43:27;;;;;;;22.33;16.65;;;5.10;99.90;;;;;;2107446;28;20016;-70
2023/01/27 02:44:28;;;;;;;23.65;18.13;;;5.20;99.90;;;;;;2107976;28;20024;-70
2023/01/27 02:45:28;;;;;;;22.67;17.02;;;5.20;99.90;;;;;;2105924;28;20345;-70
2023/01/27 02:46:29;;;;;;;24.20;16.75;;;5.10;99.90;;;;;;2108829;28;20113;-70
2023/01/27 02:47:30;;;;;;;26.95;18.38;;;5.10;99.90;;;;;;2107972;28;20034;-70
2023/01/27 02:48:30;;;;;;;24.27;17.65;;;5.10;99.90;;;;;;2108551;28;20035;-70
2023/01/27 02:49:31;;;;;;;24.02;18.15;;;5.20;99.90;;;;;;2109628;28;20023;-70
2023/01/27 02:50:32;;;;;;;25.98;17.75;;;5.20;99.90;;;;;;2115449;28;20463;-70
2023/01/27 02:51:32;;;;;;;21.77;16.55;;;5.20;99.90;;;;;;2108411;28;20030;-70
2023/01/27 02:52:33;;;;;;;26.48;17.75;;;5.20;99.90;;;;;;2106095;28;20028;-70
2023/01/27 02:53:33;;;;;;;25.02;17.15;;;5.20;99.90;;;;;;2108854;28;20031;-70
2023/01/27 02:54:34;;;;;;;22.00;15.57;;;5.20;99.90;;;;;;2107496;28;20032;-70
2023/01/27 02:55:34;;;;;;;22.42;17.45;;;5.20;99.90;;;;;;2108775;28;20027;-70
2023/01/27 02:56:35;;;;;;;24.25;17.42;;;5.20;99.90;;;;;;2108893;28;20104;-70
2023/01/27 02:57:35;;;;;;;24.65;17.63;;;5.20;99.90;;;;;;2107942;28;20023;-70
2023/01/27 02:58:36;;;;;;;25.15;17.75;;;5.20;99.90;;;;;;2108455;28;20015;-70
2023/01/27 02:59:37;;;;;;;23.80;17.42;;;5.20;99.90;;;;;;2106631;28;20027;-70
2023/01/27 03:00:37;;;;;;;23.40;16.48;;;5.20;99.90;;;;;;2108217;28;20028;-70
2023/01/27 03:01:38;;;;;;;20.88;16.38;;;5.20;99.90;;;;;;2110609;28;20032;-70
2023/01/27 03:02:38;;;;;;;22.30;17.23;;;5.20;99.90;;;;;;2110972;28;20016;-70
2023/01/27 03:03:48;;;;;;;23.98;17.13;;;5.20;99.90;;;;;;2107774;28;20028;-70
2023/01/27 03:04:48;;;;;;;20.52;16.63;;;5.20;99.90;;;;;;2108963;28;20523;-70
2023/01/27 03:05:50;;;;;;;21.25;16.52;;;5.10;99.90;;;;;;2106627;28;20054;-70
2023/01/27 03:06:51;;;;;;;21.75;15.43;;;5.10;99.90;;;;;;2106759;28;20019;-70
2023/01/27 03:07:51;;;;;;;24.95;16.33;;;5.10;99.90;;;;;;2109234;28;20039;-70
2023/01/27 03:08:52;;;;;;;23.08;17.13;;;5.10;99.90;;;;;;2107600;28;20036;-70
2023/01/27 03:09:52;;;;;;;22.80;16.17;;;5.10;99.90;;;;;;2105427;28;20027;-70
2023/01/27 03:10:54;;;;;;;20.65;15.98;;;5.10;99.90;;;;;;2106484;28;20024;-70
2023/01/27 03:13:14;;;;;;;23.52;15.80;;;5.20;99.90;;;;;;2106222;28;20721;-70
2023/01/27 03:14:14;;;;;;;21.38;15.90;;;5.10;99.90;;;;;;2105539;28;20028;-70
2023/01/27 03:18:17;;;;;;;23.75;16.48;;;5.10;99.90;;;;;;2107649;28;20028;-70
2023/01/27 03:19:17;;;;;;;24.85;16.38;;;5.10;99.90;;;;;;2106933;28;20055;-70
2023/01/27 03:20:18;;;;;;;24.77;16.73;;;5.10;99.90;;;;;;2106644;28;20073;-70
2023/01/27 03:21:19;;;;;;;21.23;15.52;;;5.10;99.90;;;;;;2108493;28;20106;-70
2023/01/27 03:22:19;;;;;;;25.35;17.38;;;5.10;99.90;;;;;;2107816;28;20030;-70
2023/01/27 03:23:20;;;;;;;23.83;16.27;;;5.10;99.90;;;;;;2108278;28;20023;-70
2023/01/27 03:24:21;;;;;;;20.13;15.23;;;5.10;99.90;;;;;;2107918;28;20063;-70
2023/01/27 03:25:21;;;;;;;21.83;17.60;;;5.10;99.90;;;;;;2107229;28;20028;-70
2023/01/27 03:26:22;;;;;;;23.08;16.42;;;5.00;99.90;;;;;;2108299;28;20024;-70
2023/01/27 03:27:22;;;;;;;24.17;16.63;;;5.00;99.90;;;;;;2109802;28;20047;-70
2023/01/27 03:28:23;;;;;;;22.40;16.35;;;5.00;99.90;;;;;;2111340;28;20042;-70
2023/01/27 03:30:42;;;;;;;20.08;16.02;;;5.00;99.90;;;;;;2108373;28;20027;-70
2023/01/27 03:31:43;;;;;;;24.77;17.15;;;5.00;99.90;;;;;;2106845;28;20028;-70
2023/01/27 03:32:46;;;;;;;18.80;15.35;;;5.00;99.90;;;;;;2106895;28;20032;-70
2023/01/27 03:33:47;;;;;;;22.95;16.60;;;5.00;99.90;;;;;;2107206;28;20016;-70
2023/01/27 03:34:47;;;;;;;22.85;15.95;;;5.00;99.90;;;;;;2107993;28;20019;-70
2023/01/27 03:35:48;;;;;;;19.52;16.55;;;5.00;99.90;;;;;;2108415;28;20478;-70
2023/01/27 03:46:18;;;;;;;24.85;17.50;;;5.00;99.90;;;;;;2105360;28;20024;-70
2023/01/27 03:47:18;;;;;;;24.20;16.92;;;5.00;99.90;;;;;;2107574;28;20023;-70
2023/01/27 03:48:19;;;;;;;23.83;17.70;;;5.00;99.90;;;;;;2105230;28;20058;-70
2023/01/27 03:49:20;;;;;;;24.48;18.23;;;5.00;99.90;;;;;;2069457;28;1074338;-70
2023/01/27 03:50:29;;;;;;;26.40;18.08;;;5.00;99.90;;;;;;2106271;28;20831;-70
2023/01/27 03:51:30;;;;;;;26.67;17.15;;;5.00;99.90;;;;;;2107640;28;20031;-70
2023/01/27 03:52:30;;;;;;;24.40;17.98;;;5.00;99.90;;;;;;2108057;28;20873;-70
2023/01/27 03:53:31;;;;;;;26.48;18.55;;;5.00;99.90;;;;;;2108106;28;20111;-70
2023/01/27 03:54:32;;;;;;;27.45;18.00;;;5.00;99.90;;;;;;2107578;28;20027;-70
2023/01/27 03:55:34;;;;;;;22.75;18.50;;;5.00;99.90;;;;;;2106821;28;20691;-70
2023/01/27 03:56:34;;;;;;;28.05;19.05;;;5.00;99.90;;;;;;2112289;27;20126;-70
2023/01/27 03:57:36;;;;;;;27.60;18.77;;;5.00;99.90;;;;;;2112802;27;20032;-70
2023/01/27 03:58:38;;;;;;;24.80;19.52;;;5.00;99.90;;;;;;2108591;28;20693;-70
2023/01/27 03:59:38;;;;;;;28.45;19.58;;;5.00;99.90;;;;;;2106653;28;20028;-70
2023/01/27 04:00:39;;;;;;;26.85;20.08;;;5.00;99.90;;;;;;2106900;28;20105;-70
2023/01/27 04:01:40;;;;;;;25.00;19.10;;;5.00;99.90;;;;;;2108456;28;20459;-70
2023/01/27 04:06:53;;;;;;;26.25;18.27;;;5.00;99.90;;;;;;2109930;28;20032;-70
2023/01/27 04:07:54;;;;;;;26.95;19.73;;;5.00;99.90;;;;;;2107693;28;20030;-70
2023/01/27 04:08:55;;;;;;;24.17;18.30;;;5.00;99.90;;;;;;2105965;28;20103;-70
2023/01/27 04:09:55;;;;;;;24.83;18.58;;;5.00;99.90;;;;;;2107836;28;20483;-70
2023/01/27 04:12:20;;;;;;;24.60;18.90;;;5.00;99.90;;;;;;2106621;28;20876;-70
2023/01/27 04:13:22;;;;;;;26.85;19.10;;;5.00;99.90;;;;;;2109488;27;20998;-70
2023/01/27 04:14:27;;;;;;;24.67;19.25;;;5.00;99.90;;;;;;2110522;28;20507;-70
2023/01/27 04:15:27;;;;;;;24.00;17.58;;;5.00;99.90;;;;;;2105703;28;20027;-70
2023/01/27 04:16:29;;;;;;;25.63;17.90;;;5.00;99.90;;;;;;2109119;28;20475;-70
2023/01/27 04:17:37;;;;;;;25.33;18.15;;;5.00;99.90;;;;;;2107433;28;20053;-70
2023/01/27 04:18:38;;;;;;;22.33;18.15;;;5.00;99.90;;;;;;2107332;28;20027;-70
2023/01/27 04:19:39;;;;;;;25.40;19.85;;;5.00;99.90;;;;;;2105494;28;20016;-70
2023/01/27 04:20:39;;;;;;;26.73;18.80;;;5.10;99.90;;;;;;2107529;28;20031;-70
2023/01/27 04:21:40;;;;;;;23.17;17.95;;;5.00;99.90;;;;;;2107057;28;20058;-70
2023/01/27 04:22:40;;;;;;;26.23;18.35;;;5.10;99.90;;;;;;2106910;28;20115;-70
2023/01/27 04:23:41;;;;;;;24.70;18.15;;;5.10;99.90;;;;;;2109371;28;20036;-70
2023/01/27 04:24:41;;;;;;;24.35;17.65;;;5.10;99.90;;;;;;2106931;28;20035;-70
2023/01/27 04:25:42;;;;;;;25.13;18.40;;;5.10;99.90;;;;;;2108171;27;20047;-70
2023/01/27 04:26:43;;;;;;;24.17;17.52;;;5.10;99.90;;;;;;2106687;28;20020;-70
2023/01/27 04:27:44;;;;;;;23.08;18.45;;;5.10;99.90;;;;;;2107719;28;20027;-70
2023/01/27 04:28:45;;;;;;;25.35;18.17;;;5.10;99.90;;;;;;2106787;28;20027;-70
2023/01/27 04:29:46;;;;;;;23.20;18.25;;;5.10;99.90;;;;;;2105955;28;20024;-70
2023/01/27 04:30:47;;;;;;;24.25;17.70;;;5.10;99.90;;;;;;2107464;28;20030;-71
2023/01/27 04:31:48;;;;;;;23.17;18.20;;;5.10;99.90;;;;;;2109058;28;20024;-70
2023/01/27 04:32:49;;;;;;;24.85;18.08;;;5.10;99.90;;;;;;2106101;28;20020;-70
2023/01/27 04:33:49;;;;;;;22.67;17.67;;;5.10;99.90;;;;;;2106681;28;20038;-71
2023/01/27 04:34:50;;;;;;;23.75;18.60;;;5.10;99.90;;;;;;2106241;27;20036;-71
2023/01/27 04:35:51;;;;;;;25.98;17.98;;;5.10;99.90;;;;;;2106281;28;20030;-71
2023/01/27 04:36:52;;;;;;;23.98;18.67;;;5.10;99.90;;;;;;2106399;28;20639;-71
2023/01/27 04:37:52;;;;;;;25.38;18.55;;;5.10;99.90;;;;;;2105708;28;20092;-71
2023/01/27 04:38:53;;;;;;;25.60;17.73;;;5.10;99.90;;;;;;2107125;28;20799;-71
2023/01/27 04:39:54;;;;;;;24.10;18.48;;;5.10;99.90;;;;;;2105440;28;20040;-71
2023/01/27 04:40:54;;;;;;;24.48;17.60;;;5.10;99.90;;;;;;2112734;27;20107;-71
2023/01/27 04:41:56;;;;;;;21.73;17.65;;;5.10;99.90;;;;;;2112159;27;20030;-71
2023/01/27 04:42:57;;;;;;;23.08;18.73;;;5.10;99.90;;;;;;2107576;28;20034;-71
2023/01/27 04:43:57;;;;;;;26.75;17.67;;;5.10;99.90;;;;;;2108376;28;20124;-71
2023/01/27 04:44:58;;;;;;;25.92;18.00;;;5.10;99.90;;;;;;2106486;28;20025;-71
2023/01/27 04:45:58;;;;;;;26.58;18.35;;;5.10;99.90;;;;;;2107204;28;20028;-71
2023/01/27 04:46:59;;;;;;;27.20;18.08;;;5.10;99.90;;;;;;2108548;28;20424;-71
2023/01/27 04:47:59;;;;;;;26.75;18.30;;;5.10;99.90;;;;;;2106512;28;20786;-71
2023/01/27 04:49:00;;;;;;;23.38;18.20;;;5.10;99.90;;;;;;2105947;28;20633;-71
2023/01/27 04:50:01;;;;;;;24.42;18.42;;;5.10;99.90;;;;;;2106521;28;20090;-71
2023/01/27 04:51:01;;;;;;;24.52;18.27;;;5.10;99.90;;;;;;2105442;28;20106;-71
2023/01/27 04:52:02;;;;;;;24.77;17.85;;;5.10;99.90;;;;;;2107446;27;20464;-71
2023/01/27 04:53:02;;;;;;;26.05;18.35;;;5.20;99.90;;;;;;2108299;28;20100;-71
2023/01/27 04:54:04;;;;;;;24.33;17.98;;;5.20;99.90;;;;;;2108261;28;20115;-71
2023/01/27 04:55:05;;;;;;;28.48;17.67;;;5.10;99.90;;;;;;2109155;28;20054;-71
2023/01/27 04:56:20;;;;;;;22.90;18.55;;;5.20;99.90;;;;;;2107259;28;20020;-71
2023/01/27 04:57:20;;;;;;;21.20;17.42;;;5.20;99.90;;;;;;2109278;28;22154;-71
2023/01/27 04:58:21;;;;;;;21.33;17.75;;;5.20;99.90;;;;;;2104782;28;20177;-71
2023/01/27 04:59:21;;;;;;;23.30;17.95;;;5.20;99.90;;;;;;2111419;27;20045;-71
2023/01/27 05:00:22;;;;;;;23.92;18.40;;;5.20;99.90;;;;;;2107801;28;20043;-71
2023/01/27 05:01:22;;;;;;;28.15;18.63;;;5.20;99.90;;;;;;2108380;28;20032;-71
2023/01/27 05:02:25;;;;;;;26.98;18.33;;;5.20;99.90;;;;;;2108066;28;20031;-71
2023/01/27 05:03:25;;;;;;;24.27;19.02;;;5.20;99.90;;;;;;2107830;28;20028;-71
2023/01/27 05:04:26;;;;;;;23.77;17.92;;;5.20;99.90;;;;;;2106971;28;20081;-71
2023/01/27 05:05:26;;;;;;;29.73;18.67;;;5.20;99.90;;;;;;2105684;28;20077;-71
2023/01/27 05:06:28;;;;;;;22.38;17.80;;;5.20;99.90;;;;;;2108613;28;20557;-71
2023/01/27 05:07:28;;;;;;;23.98;18.20;;;5.20;99.90;;;;;;2106264;28;20032;-71
2023/01/27 05:08:29;;;;;;;25.65;17.35;;;5.20;99.90;;;;;;2105032;28;20020;-71
2023/01/27 05:09:30;;;;;;;21.00;18.08;;;5.20;99.90;;;;;;2109187;27;20588;-71
2023/01/27 05:10:31;;;;;;;23.55;19.00;;;5.20;99.90;;;;;;2108831;28;20400;-71
2023/01/27 05:11:32;;;;;;;23.15;18.73;;;5.20;99.90;;;;;;2107537;28;20128;-71
2023/01/27 05:12:32;;;;;;;22.15;17.05;;;5.20;99.90;;;;;;2108027;28;20019;-71
2023/01/27 05:13:33;;;;;;;24.88;18.55;;;5.20;99.90;;;;;;2106698;28;20098;-71
2023/01/27 05:14:34;;;;;;;22.10;17.95;;;5.20;99.90;;;;;;2107135;28;20028;-71
2023/01/27 05:15:34;;;;;;;24.58;18.70;;;5.20;99.90;;;;;;2107027;28;20103;-71
2023/01/27 05:16:38;;;;;;;21.35;17.48;;;5.20;99.90;;;;;;2106691;28;20024;-71
2023/01/27 05:17:38;;;;;;;22.85;17.98;;;5.20;99.90;;;;;;2106271;28;20028;-71
2023/01/27 05:18:40;;;;;;;21.75;18.50;;;5.20;99.90;;;;;;2105473;28;20027;-71
2023/01/27 05:19:41;;;;;;;20.70;17.58;;;5.20;99.90;;;;;;2104804;28;20024;-70
2023/01/27 05:20:41;;;;;;;22.27;18.10;;;5.20;99.90;;;;;;2106847;28;20020;-71
2023/01/27 05:21:43;;;;;;;25.83;18.60;;;5.20;99.90;;;;;;2106940;28;20024;-71
2023/01/27 05:22:44;;;;;;;24.15;17.25;;;5.20;99.90;;;;;;2105708;28;20077;-71
2023/01/27 05:23:44;;;;;;;20.67;16.48;;;5.20;99.90;;;;;;2106050;28;20028;-71
2023/01/27 05:24:45;;;;;;;23.60;17.45;;;5.20;99.90;;;;;;2107604;28;20041;-71
2023/01/27 05:25:45;;;;;;;22.02;17.20;;;5.20;99.90;;;;;;2107964;28;20045;-71
2023/01/27 05:26:46;;;;;;;24.02;17.20;;;5.20;99.90;;;;;;2108175;28;20059;-71
2023/01/27 05:27:46;;;;;;;19.85;17.08;;;5.20;99.90;;;;;;2111401;28;20524;-71
2023/01/27 05:28:48;;;;;;;20.75;17.63;;;5.20;99.90;;;;;;2112102;28;20026;-71
2023/01/27 05:29:49;;;;;;;20.63;16.42;;;5.30;99.90;;;;;;2107102;28;20038;-71
2023/01/27 05:30:49;;;;;;;20.42;16.90;;;5.30;99.90;;;;;;2105838;28;20016;-71
2023/01/27 05:31:50;;;;;;;23.02;17.05;;;5.20;99.90;;;;;;2108347;28;20031;-71
2023/01/27 05:32:50;;;;;;;18.10;15.75;;;5.30;99.90;;;;;;2107661;28;20102;-71
2023/01/27 05:33:53;;;;;;;20.52;17.42;;;5.30;99.90;;;;;;2107312;28;20038;-71
2023/01/27 05:34:54;;;;;;;21.25;16.13;;;5.30;99.90;;;;;;2105534;28;20024;-71
2023/01/27 05:35:57;;;;;;;22.70;16.17;;;5.30;99.90;;;;;;2108753;28;20024;-71
2023/01/27 05:36:58;;;;;;;18.77;15.20;;;5.30;99.90;;;;;;2107188;28;20077;-71
2023/01/27 05:37:58;;;;;;;22.00;15.70;;;5.30;99.90;;;;;;2104752;28;20065;-71
2023/01/27 05:38:59;;;;;;;17.55;15.43;;;5.30;99.90;;;;;;2106159;28;20491;-70
2023/01/27 05:40:00;;;;;;;18.15;15.65;;;5.30;99.90;;;;;;2106563;28;20412;-70
2023/01/27 05:41:03;;;;;;;19.42;16.10;;;5.30;99.90;;;;;;2105252;28;20099;-70
2023/01/27 05:42:03;;;;;;;20.25;15.90;;;5.30;99.90;;;;;;2105732;28;20028;-70
2023/01/27 05:43:04;;;;;;;18.30;15.07;;;5.40;99.90;;;;;;2106757;28;20074;-70
2023/01/27 05:44:05;;;;;;;21.13;16.00;;;5.40;99.90;;;;;;2106038;28;20027;-71
2023/01/27 05:45:06;;;;;;;19.08;15.13;;;5.40;99.90;;;;;;2106977;28;20150;-71
2023/01/27 05:46:12;;;;;;;19.50;15.38;;;5.40;99.90;;;;;;2106219;28;20039;-71
2023/01/27 05:47:13;;;;;;;18.52;15.65;;;5.40;99.90;;;;;;2107226;28;20676;-71
2023/01/27 05:48:13;;;;;;;19.90;15.48;;;5.40;99.90;;;;;;2105908;28;20095;-71
2023/01/27 05:49:14;;;;;;;18.77;15.13;;;5.40;99.90;;;;;;2108004;28;20028;-71